sensor_id;sensor_type;location;lat;lon;timestamp;temperature;humidity
65573;SHT30;52214;50.940;13.996;2022-09-27T00:01:35;11.98;80.24
65573;SHT30;52214;50.940;13.996;2022-09-27T00:04:01;11.97;80.78
65573;SHT30;52214;50.940;13.996;2022-09-27T00:06:28;11.95;80.54
65573;SHT30;52214;50.940;13.996;2022-09-27T00:08:54;11.87;80.98
65573;SHT30;52214;50.940;13.996;2022-09-27T00:11:29;11.85;80.57
65573;SHT30;52214;50.940;13.996;2022-09-27T00:13:57;11.90;80.96
65573;SHT30;52214;50.940;13.996;2022-09-27T00:16:25;11.91;80.72
65573;SHT30;52214;50.940;13.996;2022-09-27T00:18:51;11.85;80.33
65573;SHT30;52214;50.940;13.996;2022-09-27T00:21:16;11.90;80.51
65573;SHT30;52214;50.940;13.996;2022-09-27T00:23:42;11.88;80.66
65573;SHT30;52214;50.940;13.996;2022-09-27T00:26:10;11.90;80.24
65573;SHT30;52214;50.940;13.996;2022-09-27T00:28:37;11.91;80.52
65573;SHT30;52214;50.940;13.996;2022-09-27T00:31:03;11.85;81.12
65573;SHT30;52214;50.940;13.996;2022-09-27T00:33:28;11.84;81.13
65573;SHT30;52214;50.940;13.996;2022-09-27T00:35:54;11.85;81.03
65573;SHT30;52214;50.940;13.996;2022-09-27T00:38:19;11.77;81.88
65573;SHT30;52214;50.940;13.996;2022-09-27T00:40:45;11.84;81.49
65573;SHT30;52214;50.940;13.996;2022-09-27T00:43:20;11.80;82.24
65573;SHT30;52214;50.940;13.996;2022-09-27T00:45:49;11.74;82.12
65573;SHT30;52214;50.940;13.996;2022-09-27T00:48:18;11.74;82.29
65573;SHT30;52214;50.940;13.996;2022-09-27T00:50:47;11.73;81.94
65573;SHT30;52214;50.940;13.996;2022-09-27T00:55:59;11.74;81.78
65573;SHT30;52214;50.940;13.996;2022-09-27T00:58:29;11.73;81.89
65573;SHT30;52214;50.940;13.996;2022-09-27T01:00:58;11.76;81.49
65573;SHT30;52214;50.940;13.996;2022-09-27T01:03:39;11.71;81.98
65573;SHT30;52214;50.940;13.996;2022-09-27T01:06:08;11.71;81.56
65573;SHT30;52214;50.940;13.996;2022-09-27T01:08:34;11.73;81.99
65573;SHT30;52214;50.940;13.996;2022-09-27T01:11:09;11.70;81.65
65573;SHT30;52214;50.940;13.996;2022-09-27T01:13:45;11.71;82.22
65573;SHT30;52214;50.940;13.996;2022-09-27T01:16:35;11.66;82.05
65573;SHT30;52214;50.940;13.996;2022-09-27T01:19:22;11.67;82.04
65573;SHT30;52214;50.940;13.996;2022-09-27T01:22:05;11.66;81.82
65573;SHT30;52214;50.940;13.996;2022-09-27T01:36:17;11.67;82.20
65573;SHT30;52214;50.940;13.996;2022-09-27T01:39:09;11.66;82.29
65573;SHT30;52214;50.940;13.996;2022-09-27T01:44:36;11.66;82.35
65573;SHT30;52214;50.940;13.996;2022-09-27T01:47:12;11.64;82.32
65573;SHT30;52214;50.940;13.996;2022-09-27T01:49:45;11.66;82.27
65573;SHT30;52214;50.940;13.996;2022-09-27T01:52:15;11.62;82.68
65573;SHT30;52214;50.940;13.996;2022-09-27T01:54:46;11.57;82.75
65573;SHT30;52214;50.940;13.996;2022-09-27T01:57:17;11.55;82.93
65573;SHT30;52214;50.940;13.996;2022-09-27T01:59:46;11.57;83.22
65573;SHT30;52214;50.940;13.996;2022-09-27T02:02:16;11.47;83.57
65573;SHT30;52214;50.940;13.996;2022-09-27T02:04:47;11.47;83.93
65573;SHT30;52214;50.940;13.996;2022-09-27T02:07:21;11.43;83.72
65573;SHT30;52214;50.940;13.996;2022-09-27T02:09:52;11.39;83.71
65573;SHT30;52214;50.940;13.996;2022-09-27T02:12:27;11.33;84.22
65573;SHT30;52214;50.940;13.996;2022-09-27T02:15:03;11.30;84.61
65573;SHT30;52214;50.940;13.996;2022-09-27T02:20:21;11.19;85.53
65573;SHT30;52214;50.940;13.996;2022-09-27T02:23:20;11.05;85.52
65573;SHT30;52214;50.940;13.996;2022-09-27T02:28:26;11.02;86.70
65573;SHT30;52214;50.940;13.996;2022-09-27T02:30:53;10.83;88.15
65573;SHT30;52214;50.940;13.996;2022-09-27T02:33:23;10.73;88.85
65573;SHT30;52214;50.940;13.996;2022-09-27T02:35:50;10.63;89.81
65573;SHT30;52214;50.940;13.996;2022-09-27T02:38:15;10.61;90.53
65573;SHT30;52214;50.940;13.996;2022-09-27T02:40:46;10.50;91.26
65573;SHT30;52214;50.940;13.996;2022-09-27T02:43:13;10.42;91.98
65573;SHT30;52214;50.940;13.996;2022-09-27T02:54:10;10.38;90.95
65573;SHT30;52214;50.940;13.996;2022-09-27T03:04:36;10.29;91.52
65573;SHT30;52214;50.940;13.996;2022-09-27T03:07:04;10.35;91.03
65573;SHT30;52214;50.940;13.996;2022-09-27T03:09:48;10.33;91.85
65573;SHT30;52214;50.940;13.996;2022-09-27T03:12:16;10.46;90.98
65573;SHT30;52214;50.940;13.996;2022-09-27T03:14:54;10.49;90.67
65573;SHT30;52214;50.940;13.996;2022-09-27T03:17:20;10.45;90.95
65573;SHT30;52214;50.940;13.996;2022-09-27T03:19:47;10.43;91.02
65573;SHT30;52214;50.940;13.996;2022-09-27T03:22:13;10.47;91.04
65573;SHT30;52214;50.940;13.996;2022-09-27T03:24:38;10.42;91.36
65573;SHT30;52214;50.940;13.996;2022-09-27T03:27:04;10.56;90.12
65573;SHT30;52214;50.940;13.996;2022-09-27T03:29:29;10.64;89.90
65573;SHT30;52214;50.940;13.996;2022-09-27T03:31:56;10.73;89.62
65573;SHT30;52214;50.940;13.996;2022-09-27T03:34:21;10.81;89.30
65573;SHT30;52214;50.940;13.996;2022-09-27T03:36:47;10.83;89.75
65573;SHT30;52214;50.940;13.996;2022-09-27T03:39:12;10.77;89.32
65573;SHT30;52214;50.940;13.996;2022-09-27T03:41:38;10.80;89.57
65573;SHT30;52214;50.940;13.996;2022-09-27T03:44:03;10.90;88.89
65573;SHT30;52214;50.940;13.996;2022-09-27T03:46:29;10.91;89.16
65573;SHT30;52214;50.940;13.996;2022-09-27T03:48:54;10.98;89.26
65573;SHT30;52214;50.940;13.996;2022-09-27T03:51:21;10.94;88.61
65573;SHT30;52214;50.940;13.996;2022-09-27T03:53:46;10.95;88.27
65573;SHT30;52214;50.940;13.996;2022-09-27T03:56:12;10.87;89.07
65573;SHT30;52214;50.940;13.996;2022-09-27T03:58:38;10.85;90.15
65573;SHT30;52214;50.940;13.996;2022-09-27T04:01:03;10.77;90.73
65573;SHT30;52214;50.940;13.996;2022-09-27T04:03:29;10.66;90.80
65573;SHT30;52214;50.940;13.996;2022-09-27T04:05:54;10.70;91.08
65573;SHT30;52214;50.940;13.996;2022-09-27T04:08:20;10.71;91.29
65573;SHT30;52214;50.940;13.996;2022-09-27T04:10:49;10.70;91.03
65573;SHT30;52214;50.940;13.996;2022-09-27T04:13:14;10.73;90.94
65573;SHT30;52214;50.940;13.996;2022-09-27T04:15:41;10.85;90.59
65573;SHT30;52214;50.940;13.996;2022-09-27T04:18:07;10.91;90.48
65573;SHT30;52214;50.940;13.996;2022-09-27T04:20:34;10.85;90.14
65573;SHT30;52214;50.940;13.996;2022-09-27T04:23:00;10.85;90.61
65573;SHT30;52214;50.940;13.996;2022-09-27T04:25:26;10.87;90.54
65573;SHT30;52214;50.940;13.996;2022-09-27T04:27:51;10.85;90.85
65573;SHT30;52214;50.940;13.996;2022-09-27T04:30:19;10.88;90.69
65573;SHT30;52214;50.940;13.996;2022-09-27T04:32:44;11.01;90.01
65573;SHT30;52214;50.940;13.996;2022-09-27T04:35:10;11.00;90.40
65573;SHT30;52214;50.940;13.996;2022-09-27T04:37:55;10.95;90.19
65573;SHT30;52214;50.940;13.996;2022-09-27T04:40:24;11.02;89.99
65573;SHT30;52214;50.940;13.996;2022-09-27T04:42:50;11.07;89.24
65573;SHT30;52214;50.940;13.996;2022-09-27T04:45:17;11.15;89.45
65573;SHT30;52214;50.940;13.996;2022-09-27T04:47:48;11.16;89.42
65573;SHT30;52214;50.940;13.996;2022-09-27T04:50:15;11.15;88.94
65573;SHT30;52214;50.940;13.996;2022-09-27T04:52:41;11.11;89.46
65573;SHT30;52214;50.940;13.996;2022-09-27T04:55:08;11.15;89.53
65573;SHT30;52214;50.940;13.996;2022-09-27T04:57:34;11.11;89.80
65573;SHT30;52214;50.940;13.996;2022-09-27T04:59:59;11.10;89.59
65573;SHT30;52214;50.940;13.996;2022-09-27T05:02:26;11.04;90.07
65573;SHT30;52214;50.940;13.996;2022-09-27T05:04:52;11.04;90.38
65573;SHT30;52214;50.940;13.996;2022-09-27T05:07:20;11.04;90.08
65573;SHT30;52214;50.940;13.996;2022-09-27T05:09:46;11.11;90.21
65573;SHT30;52214;50.940;13.996;2022-09-27T05:12:11;11.05;90.45
65573;SHT30;52214;50.940;13.996;2022-09-27T05:14:38;11.11;90.37
65573;SHT30;52214;50.940;13.996;2022-09-27T05:17:04;10.95;91.33
65573;SHT30;52214;50.940;13.996;2022-09-27T05:19:32;10.90;91.67
65573;SHT30;52214;50.940;13.996;2022-09-27T05:21:58;10.95;91.39
65573;SHT30;52214;50.940;13.996;2022-09-27T05:24:23;10.87;91.56
65573;SHT30;52214;50.940;13.996;2022-09-27T05:26:49;10.87;92.37
65573;SHT30;52214;50.940;13.996;2022-09-27T05:29:15;10.80;92.40
65573;SHT30;52214;50.940;13.996;2022-09-27T05:31:42;10.87;92.18
65573;SHT30;52214;50.940;13.996;2022-09-27T05:34:07;10.91;92.45
65573;SHT30;52214;50.940;13.996;2022-09-27T05:36:35;10.85;91.99
65573;SHT30;52214;50.940;13.996;2022-09-27T05:39:01;10.98;91.92
65573;SHT30;52214;50.940;13.996;2022-09-27T05:41:27;10.88;92.34
65573;SHT30;52214;50.940;13.996;2022-09-27T05:43:52;10.90;92.25
65573;SHT30;52214;50.940;13.996;2022-09-27T05:46:18;10.98;92.39
65573;SHT30;52214;50.940;13.996;2022-09-27T05:48:43;10.90;92.29
65573;SHT30;52214;50.940;13.996;2022-09-27T05:51:09;10.88;92.09
65573;SHT30;52214;50.940;13.996;2022-09-27T05:53:35;10.94;92.21
65573;SHT30;52214;50.940;13.996;2022-09-27T05:56:02;11.04;91.29
65573;SHT30;52214;50.940;13.996;2022-09-27T05:58:28;11.05;91.23
65573;SHT30;52214;50.940;13.996;2022-09-27T06:00:54;11.07;91.80
65573;SHT30;52214;50.940;13.996;2022-09-27T06:03:19;11.10;91.45
65573;SHT30;52214;50.940;13.996;2022-09-27T06:05:45;11.01;91.82
65573;SHT30;52214;50.940;13.996;2022-09-27T06:08:11;11.16;91.14
65573;SHT30;52214;50.940;13.996;2022-09-27T06:10:38;11.19;90.87
65573;SHT30;52214;50.940;13.996;2022-09-27T06:13:07;11.40;90.42
65573;SHT30;52214;50.940;13.996;2022-09-27T06:15:34;11.39;90.68
65573;SHT30;52214;50.940;13.996;2022-09-27T06:18:06;11.55;89.81
65573;SHT30;52214;50.940;13.996;2022-09-27T06:20:34;11.52;89.91
65573;SHT30;52214;50.940;13.996;2022-09-27T06:23:12;11.63;89.36
65573;SHT30;52214;50.940;13.996;2022-09-27T06:25:38;11.70;89.46
65573;SHT30;52214;50.940;13.996;2022-09-27T06:28:04;11.71;89.29
65573;SHT30;52214;50.940;13.996;2022-09-27T06:30:30;11.70;88.81
65573;SHT30;52214;50.940;13.996;2022-09-27T06:32:57;11.73;89.49
65573;SHT30;52214;50.940;13.996;2022-09-27T06:35:23;11.71;89.45
65573;SHT30;52214;50.940;13.996;2022-09-27T06:37:50;11.80;88.21
65573;SHT30;52214;50.940;13.996;2022-09-27T06:40:16;11.76;88.99
65573;SHT30;52214;50.940;13.996;2022-09-27T06:42:42;11.83;88.78
65573;SHT30;52214;50.940;13.996;2022-09-27T06:45:09;11.84;88.12
65573;SHT30;52214;50.940;13.996;2022-09-27T06:47:35;11.83;87.69
65573;SHT30;52214;50.940;13.996;2022-09-27T06:50:01;11.88;87.65
65573;SHT30;52214;50.940;13.996;2022-09-27T06:52:28;11.94;87.27
65573;SHT30;52214;50.940;13.996;2022-09-27T06:54:53;12.11;87.33
65573;SHT30;52214;50.940;13.996;2022-09-27T06:57:18;12.12;87.15
65573;SHT30;52214;50.940;13.996;2022-09-27T07:00:04;12.21;88.00
65573;SHT30;52214;50.940;13.996;2022-09-27T07:02:48;12.22;87.40
65573;SHT30;52214;50.940;13.996;2022-09-27T07:05:18;12.25;87.09
65573;SHT30;52214;50.940;13.996;2022-09-27T07:07:44;12.29;88.11
65573;SHT30;52214;50.940;13.996;2022-09-27T07:10:10;12.18;87.38
65573;SHT30;52214;50.940;13.996;2022-09-27T07:12:36;12.18;87.89
65573;SHT30;52214;50.940;13.996;2022-09-27T07:15:03;12.17;87.90
65573;SHT30;52214;50.940;13.996;2022-09-27T07:17:29;12.10;87.80
65573;SHT30;52214;50.940;13.996;2022-09-27T07:19:55;12.02;88.77
65573;SHT30;52214;50.940;13.996;2022-09-27T07:22:21;12.01;88.74
65573;SHT30;52214;50.940;13.996;2022-09-27T07:24:47;12.04;87.40
65573;SHT30;52214;50.940;13.996;2022-09-27T07:27:13;12.01;87.63
65573;SHT30;52214;50.940;13.996;2022-09-27T07:29:39;12.12;88.30
65573;SHT30;52214;50.940;13.996;2022-09-27T07:32:05;12.22;87.56
65573;SHT30;52214;50.940;13.996;2022-09-27T07:34:32;12.24;87.15
65573;SHT30;52214;50.940;13.996;2022-09-27T07:36:58;12.29;86.88
65573;SHT30;52214;50.940;13.996;2022-09-27T07:39:25;12.28;86.83
65573;SHT30;52214;50.940;13.996;2022-09-27T07:41:50;12.17;87.10
65573;SHT30;52214;50.940;13.996;2022-09-27T07:44:16;12.12;87.04
65573;SHT30;52214;50.940;13.996;2022-09-27T07:46:42;12.06;87.17
65573;SHT30;52214;50.940;13.996;2022-09-27T07:49:08;11.99;87.51
65573;SHT30;52214;50.940;13.996;2022-09-27T07:51:33;11.99;87.40
65573;SHT30;52214;50.940;13.996;2022-09-27T07:53:59;12.04;87.75
65573;SHT30;52214;50.940;13.996;2022-09-27T07:56:28;12.08;87.73
65573;SHT30;52214;50.940;13.996;2022-09-27T07:58:53;12.11;87.43
65573;SHT30;52214;50.940;13.996;2022-09-27T08:01:19;12.18;87.11
65573;SHT30;52214;50.940;13.996;2022-09-27T08:03:45;12.19;86.73
65573;SHT30;52214;50.940;13.996;2022-09-27T08:06:10;12.24;86.65
65573;SHT30;52214;50.940;13.996;2022-09-27T08:08:37;12.22;86.92
65573;SHT30;52214;50.940;13.996;2022-09-27T08:11:13;12.29;86.15
65573;SHT30;52214;50.940;13.996;2022-09-27T08:13:43;12.35;85.72
65573;SHT30;52214;50.940;13.996;2022-09-27T08:16:09;12.36;86.21
65573;SHT30;52214;50.940;13.996;2022-09-27T08:18:36;12.38;86.89
65573;SHT30;52214;50.940;13.996;2022-09-27T08:21:01;12.36;87.36
65573;SHT30;52214;50.940;13.996;2022-09-27T08:23:28;12.38;86.28
65573;SHT30;52214;50.940;13.996;2022-09-27T08:25:54;12.68;86.23
65573;SHT30;52214;50.940;13.996;2022-09-27T08:28:22;12.74;85.62
65573;SHT30;52214;50.940;13.996;2022-09-27T08:30:48;12.79;84.99
65573;SHT30;52214;50.940;13.996;2022-09-27T08:33:15;12.76;84.85
65573;SHT30;52214;50.940;13.996;2022-09-27T08:35:41;12.90;84.55
65573;SHT30;52214;50.940;13.996;2022-09-27T08:38:08;12.97;84.82
65573;SHT30;52214;50.940;13.996;2022-09-27T08:40:53;13.43;82.83
65573;SHT30;52214;50.940;13.996;2022-09-27T08:46:23;14.04;81.61
65573;SHT30;52214;50.940;13.996;2022-09-27T08:48:58;14.42;80.29
65573;SHT30;52214;50.940;13.996;2022-09-27T08:51:29;14.80;79.57
65573;SHT30;52214;50.940;13.996;2022-09-27T08:54:25;14.83;79.07
65573;SHT30;52214;50.940;13.996;2022-09-27T08:56:57;14.57;78.31
65573;SHT30;52214;50.940;13.996;2022-09-27T08:59:29;14.38;77.79
65573;SHT30;52214;50.940;13.996;2022-09-27T09:01:57;14.38;77.27
65573;SHT30;52214;50.940;13.996;2022-09-27T09:04:30;14.32;77.75
65573;SHT30;52214;50.940;13.996;2022-09-27T09:07:15;14.25;77.62
65573;SHT30;52214;50.940;13.996;2022-09-27T09:12:48;14.67;75.47
65573;SHT30;52214;50.940;13.996;2022-09-27T09:19:21;15.42;73.74
65573;SHT30;52214;50.940;13.996;2022-09-27T09:22:13;15.38;75.70
65573;SHT30;52214;50.940;13.996;2022-09-27T09:24:44;15.63;74.08
65573;SHT30;52214;50.940;13.996;2022-09-27T09:27:24;15.91;73.08
65573;SHT30;52214;50.940;13.996;2022-09-27T09:30:00;15.59;73.85
65573;SHT30;52214;50.940;13.996;2022-09-27T09:32:45;15.02;75.19
65573;SHT30;52214;50.940;13.996;2022-09-27T09:37:58;14.50;76.71
65573;SHT30;52214;50.940;13.996;2022-09-27T09:40:34;14.35;76.63
65573;SHT30;52214;50.940;13.996;2022-09-27T09:43:17;14.19;77.29
65573;SHT30;52214;50.940;13.996;2022-09-27T09:45:51;14.05;77.91
65573;SHT30;52214;50.940;13.996;2022-09-27T09:48:30;13.94;78.80
65573;SHT30;52214;50.940;13.996;2022-09-27T09:50:58;13.66;78.50
65573;SHT30;52214;50.940;13.996;2022-09-27T09:53:38;13.30;78.73
65573;SHT30;52214;50.940;13.996;2022-09-27T09:56:09;13.05;82.08
65573;SHT30;52214;50.940;13.996;2022-09-27T09:58:48;12.53;85.22
65573;SHT30;52214;50.940;13.996;2022-09-27T10:03:43;11.66;89.94
65573;SHT30;52214;50.940;13.996;2022-09-27T10:06:10;11.63;92.25
65573;SHT30;52214;50.940;13.996;2022-09-27T10:08:36;11.57;90.89
65573;SHT30;52214;50.940;13.996;2022-09-27T10:11:02;11.55;91.13
65573;SHT30;52214;50.940;13.996;2022-09-27T10:13:33;11.56;93.24
65573;SHT30;52214;50.940;13.996;2022-09-27T10:16:05;11.56;91.71
65573;SHT30;52214;50.940;13.996;2022-09-27T10:18:31;11.67;91.70
65573;SHT30;52214;50.940;13.996;2022-09-27T10:21:01;11.60;91.74
65573;SHT30;52214;50.940;13.996;2022-09-27T10:23:28;11.62;92.63
65573;SHT30;52214;50.940;13.996;2022-09-27T10:26:01;11.56;91.73
65573;SHT30;52214;50.940;13.996;2022-09-27T10:31:07;11.95;91.27
65573;SHT30;52214;50.940;13.996;2022-09-27T10:33:36;12.21;89.22
65573;SHT30;52214;50.940;13.996;2022-09-27T10:36:03;12.39;89.38
65573;SHT30;52214;50.940;13.996;2022-09-27T10:38:35;12.55;89.33
65573;SHT30;52214;50.940;13.996;2022-09-27T10:41:34;12.91;87.21
65573;SHT30;52214;50.940;13.996;2022-09-27T10:46:43;14.32;84.64
65573;SHT30;52214;50.940;13.996;2022-09-27T10:49:30;15.36;81.15
65573;SHT30;52214;50.940;13.996;2022-09-27T10:51:59;15.36;78.80
65573;SHT30;52214;50.940;13.996;2022-09-27T10:54:36;15.50;82.38
65573;SHT30;52214;50.940;13.996;2022-09-27T10:57:27;15.34;77.92
65573;SHT30;52214;50.940;13.996;2022-09-27T11:00:07;14.60;81.49
65573;SHT30;52214;50.940;13.996;2022-09-27T11:02:53;14.55;80.99
65573;SHT30;52214;50.940;13.996;2022-09-27T11:07:53;13.62;83.13
65573;SHT30;52214;50.940;13.996;2022-09-27T11:10:31;13.47;85.85
65573;SHT30;52214;50.940;13.996;2022-09-27T11:15:41;12.83;86.71
65573;SHT30;52214;50.940;13.996;2022-09-27T11:18:25;12.17;84.25
65573;SHT30;52214;50.940;13.996;2022-09-27T11:23:48;11.55;82.18
65573;SHT30;52214;50.940;13.996;2022-09-27T11:29:24;12.08;80.24
65573;SHT30;52214;50.940;13.996;2022-09-27T11:34:42;12.66;79.11
65573;SHT30;52214;50.940;13.996;2022-09-27T11:37:28;12.67;80.14
65573;SHT30;52214;50.940;13.996;2022-09-27T11:40:20;12.36;80.70
65573;SHT30;52214;50.940;13.996;2022-09-27T11:48:26;11.81;82.83
65573;SHT30;52214;50.940;13.996;2022-09-27T11:51:09;11.88;82.74
65573;SHT30;52214;50.940;13.996;2022-09-27T11:56:53;11.84;85.93
65573;SHT30;52214;50.940;13.996;2022-09-27T12:05:34;12.42;84.93
65573;SHT30;52214;50.940;13.996;2022-09-27T12:11:18;12.32;83.50
65573;SHT30;52214;50.940;13.996;2022-09-27T12:16:22;12.14;83.70
65573;SHT30;52214;50.940;13.996;2022-09-27T12:18:51;12.39;83.72
65573;SHT30;52214;50.940;13.996;2022-09-27T12:21:18;12.53;83.85
65573;SHT30;52214;50.940;13.996;2022-09-27T12:23:47;12.84;83.55
65573;SHT30;52214;50.940;13.996;2022-09-27T12:26:19;12.87;81.45
65573;SHT30;52214;50.940;13.996;2022-09-27T12:29:08;13.02;81.19
65573;SHT30;52214;50.940;13.996;2022-09-27T12:31:42;13.15;80.60
65573;SHT30;52214;50.940;13.996;2022-09-27T12:34:14;12.95;80.34
65573;SHT30;52214;50.940;13.996;2022-09-27T12:36:46;12.90;81.68
65573;SHT30;52214;50.940;13.996;2022-09-27T12:39:21;12.49;82.87
65573;SHT30;52214;50.940;13.996;2022-09-27T12:41:52;12.43;82.62
65573;SHT30;52214;50.940;13.996;2022-09-27T12:44:27;12.50;81.73
65573;SHT30;52214;50.940;13.996;2022-09-27T12:49:45;12.49;82.81
65573;SHT30;52214;50.940;13.996;2022-09-27T12:52:17;12.55;82.17
65573;SHT30;52214;50.940;13.996;2022-09-27T12:55:02;12.24;82.10
65573;SHT30;52214;50.940;13.996;2022-09-27T13:00:25;12.42;82.70
65573;SHT30;52214;50.940;13.996;2022-09-27T13:11:25;13.16;81.74
65573;SHT30;52214;50.940;13.996;2022-09-27T13:13:55;13.05;82.15
65573;SHT30;52214;50.940;13.996;2022-09-27T13:16:21;12.87;79.38
65573;SHT30;52214;50.940;13.996;2022-09-27T13:18:52;12.98;82.10
65573;SHT30;52214;50.940;13.996;2022-09-27T13:27:01;13.04;77.58
65573;SHT30;52214;50.940;13.996;2022-09-27T13:29:29;13.50;78.09
65573;SHT30;52214;50.940;13.996;2022-09-27T13:39:46;13.00;77.34
65573;SHT30;52214;50.940;13.996;2022-09-27T13:42:46;13.14;77.50
65573;SHT30;52214;50.940;13.996;2022-09-27T13:45:21;13.07;78.32
65573;SHT30;52214;50.940;13.996;2022-09-27T13:47:49;12.57;77.36
65573;SHT30;52214;50.940;13.996;2022-09-27T13:50:32;12.57;78.98
65573;SHT30;52214;50.940;13.996;2022-09-27T13:53:20;12.59;77.97
65573;SHT30;52214;50.940;13.996;2022-09-27T13:55:49;12.39;78.68
65573;SHT30;52214;50.940;13.996;2022-09-27T14:00:49;12.01;79.92
65573;SHT30;52214;50.940;13.996;2022-09-27T14:03:34;11.95;79.80
65573;SHT30;52214;50.940;13.996;2022-09-27T14:06:06;12.06;79.64
65573;SHT30;52214;50.940;13.996;2022-09-27T14:11:09;12.36;78.47
65573;SHT30;52214;50.940;13.996;2022-09-27T14:13:37;12.42;79.64
65573;SHT30;52214;50.940;13.996;2022-09-27T14:16:04;12.36;77.97
65573;SHT30;52214;50.940;13.996;2022-09-27T14:18:31;12.72;77.99
65573;SHT30;52214;50.940;13.996;2022-09-27T14:21:17;13.39;75.60
65573;SHT30;52214;50.940;13.996;2022-09-27T14:23:43;13.22;75.61
65573;SHT30;52214;50.940;13.996;2022-09-27T14:26:26;13.23;75.47
65573;SHT30;52214;50.940;13.996;2022-09-27T14:28:52;13.34;75.21
65573;SHT30;52214;50.940;13.996;2022-09-27T14:31:21;14.59;71.96
65573;SHT30;52214;50.940;13.996;2022-09-27T14:33:48;15.57;68.20
65573;SHT30;52214;50.940;13.996;2022-09-27T14:36:24;15.12;69.27
65573;SHT30;52214;50.940;13.996;2022-09-27T14:39:27;14.72;69.87
65573;SHT30;52214;50.940;13.996;2022-09-27T14:41:58;14.19;73.61
65573;SHT30;52214;50.940;13.996;2022-09-27T14:44:24;14.05;74.03
65573;SHT30;52214;50.940;13.996;2022-09-27T14:47:13;14.73;73.47
65573;SHT30;52214;50.940;13.996;2022-09-27T14:49:52;15.28;70.67
65573;SHT30;52214;50.940;13.996;2022-09-27T14:52:23;14.87;71.41
65573;SHT30;52214;50.940;13.996;2022-09-27T14:55:01;14.57;73.47
65573;SHT30;52214;50.940;13.996;2022-09-27T14:57:29;13.66;76.99
65573;SHT30;52214;50.940;13.996;2022-09-27T15:00:00;13.28;75.04
65573;SHT30;52214;50.940;13.996;2022-09-27T15:02:28;12.94;78.54
65573;SHT30;52214;50.940;13.996;2022-09-27T15:04:54;12.11;86.57
65573;SHT30;52214;50.940;13.996;2022-09-27T15:07:19;11.44;87.78
65573;SHT30;52214;50.940;13.996;2022-09-27T15:09:47;11.63;87.86
65573;SHT30;52214;50.940;13.996;2022-09-27T15:12:20;11.62;86.81
65573;SHT30;52214;50.940;13.996;2022-09-27T15:14:48;11.38;85.52
65573;SHT30;52214;50.940;13.996;2022-09-27T15:17:18;11.21;89.20
65573;SHT30;52214;50.940;13.996;2022-09-27T15:22:41;11.12;85.18
65573;SHT30;52214;50.940;13.996;2022-09-27T15:25:19;11.15;87.17
65573;SHT30;52214;50.940;13.996;2022-09-27T15:27:54;11.07;85.19
65573;SHT30;52214;50.940;13.996;2022-09-27T15:30:52;10.74;86.66
65573;SHT30;52214;50.940;13.996;2022-09-27T15:33:26;10.95;84.32
65573;SHT30;52214;50.940;13.996;2022-09-27T15:35:58;10.66;90.08
65573;SHT30;52214;50.940;13.996;2022-09-27T15:38:37;10.85;85.19
65573;SHT30;52214;50.940;13.996;2022-09-27T15:41:25;10.80;86.99
65573;SHT30;52214;50.940;13.996;2022-09-27T15:43:51;10.70;87.44
65573;SHT30;52214;50.940;13.996;2022-09-27T15:46:26;10.67;88.37
65573;SHT30;52214;50.940;13.996;2022-09-27T15:49:21;10.63;88.25
65573;SHT30;52214;50.940;13.996;2022-09-27T15:51:49;10.74;85.76
65573;SHT30;52214;50.940;13.996;2022-09-27T15:54:19;10.64;86.03
65573;SHT30;52214;50.940;13.996;2022-09-27T15:56:46;10.70;86.23
65573;SHT30;52214;50.940;13.996;2022-09-27T15:59:33;10.61;88.62
65573;SHT30;52214;50.940;13.996;2022-09-27T16:02:09;10.55;87.98
65573;SHT30;52214;50.940;13.996;2022-09-27T16:04:34;10.60;86.77
65573;SHT30;52214;50.940;13.996;2022-09-27T16:07:01;10.64;87.09
65573;SHT30;52214;50.940;13.996;2022-09-27T16:09:28;10.59;86.97
65573;SHT30;52214;50.940;13.996;2022-09-27T16:11:53;10.70;85.76
65573;SHT30;52214;50.940;13.996;2022-09-27T16:14:19;10.53;88.84
65573;SHT30;52214;50.940;13.996;2022-09-27T16:16:51;10.66;85.36
65573;SHT30;52214;50.940;13.996;2022-09-27T16:19:17;10.61;86.58
65573;SHT30;52214;50.940;13.996;2022-09-27T16:21:42;10.59;87.27
65573;SHT30;52214;50.940;13.996;2022-09-27T16:24:09;10.70;83.23
65573;SHT30;52214;50.940;13.996;2022-09-27T16:26:35;10.73;84.76
65573;SHT30;52214;50.940;13.996;2022-09-27T16:29:00;10.64;86.07
65573;SHT30;52214;50.940;13.996;2022-09-27T16:31:26;10.55;87.72
65573;SHT30;52214;50.940;13.996;2022-09-27T16:33:52;10.42;88.27
65573;SHT30;52214;50.940;13.996;2022-09-27T16:36:17;10.40;87.40
65573;SHT30;52214;50.940;13.996;2022-09-27T16:38:48;10.36;84.19
65573;SHT30;52214;50.940;13.996;2022-09-27T16:41:14;10.22;86.82
65573;SHT30;52214;50.940;13.996;2022-09-27T16:43:39;10.39;84.52
65573;SHT30;52214;50.940;13.996;2022-09-27T16:46:07;10.30;83.55
65573;SHT30;52214;50.940;13.996;2022-09-27T16:48:36;10.16;85.02
65573;SHT30;52214;50.940;13.996;2022-09-27T16:51:14;9.97;86.15
65573;SHT30;52214;50.940;13.996;2022-09-27T16:53:59;10.06;85.06
65573;SHT30;52214;50.940;13.996;2022-09-27T16:56:25;9.93;86.52
65573;SHT30;52214;50.940;13.996;2022-09-27T16:58:52;9.87;85.50
65573;SHT30;52214;50.940;13.996;2022-09-27T17:01:18;10.09;84.35
65573;SHT30;52214;50.940;13.996;2022-09-27T17:03:48;9.93;87.63
65573;SHT30;52214;50.940;13.996;2022-09-27T17:06:15;10.09;84.39
65573;SHT30;52214;50.940;13.996;2022-09-27T17:08:41;9.98;86.19
65573;SHT30;52214;50.940;13.996;2022-09-27T17:11:06;9.99;86.41
65573;SHT30;52214;50.940;13.996;2022-09-27T17:13:32;9.88;87.81
65573;SHT30;52214;50.940;13.996;2022-09-27T17:15:58;9.93;86.44
65573;SHT30;52214;50.940;13.996;2022-09-27T17:18:24;9.84;87.30
65573;SHT30;52214;50.940;13.996;2022-09-27T17:20:49;9.85;85.55
65573;SHT30;52214;50.940;13.996;2022-09-27T17:23:15;9.74;87.08
65573;SHT30;52214;50.940;13.996;2022-09-27T17:25:40;9.66;86.40
65573;SHT30;52214;50.940;13.996;2022-09-27T17:28:06;9.63;87.13
65573;SHT30;52214;50.940;13.996;2022-09-27T17:30:31;9.77;85.58
65573;SHT30;52214;50.940;13.996;2022-09-27T17:32:59;9.67;86.35
65573;SHT30;52214;50.940;13.996;2022-09-27T17:35:24;9.57;86.49
65573;SHT30;52214;50.940;13.996;2022-09-27T17:37:50;9.35;88.44
65573;SHT30;52214;50.940;13.996;2022-09-27T17:40:16;9.58;84.99
65573;SHT30;52214;50.940;13.996;2022-09-27T17:42:41;9.50;86.57
65573;SHT30;52214;50.940;13.996;2022-09-27T17:45:08;9.44;86.31
65573;SHT30;52214;50.940;13.996;2022-09-27T17:47:34;9.28;87.30